Time;durP1;ratioP1;P1;durP2;ratioP2;P2;SDS_P1;SDS_P2;PMS_P1;PMS_P2;Temp;Humidity;BMP_temperature;BMP_pressure;BME280_temperature;BME280_humidity;BME280_pressure;Samples;Min_cycle;Max_cycle;Signal;HPM_P1;HPM_P2
2022/08/03 00:01:32;;;;;;;7.88;2.30;;;21.10;64.90;;;20.47;73.55;96122.78;4965612;28;20054;-67
2022/08/03 00:03:58;;;;;;;4.10;2.08;;;21.10;65.00;;;20.44;73.00;96117.94;4950663;28;20043;-66
2022/08/03 00:06:24;;;;;;;4.10;2.50;;;21.10;65.00;;;20.38;72.91;96119.72;4949401;28;20130;-67
2022/08/03 00:08:50;;;;;;;3.47;2.20;;;21.10;65.10;;;20.31;73.29;96118.28;4954700;28;20071;-67
2022/08/03 00:11:16;;;;;;;4.45;2.13;;;21.00;65.30;;;20.27;73.22;96117.97;4961570;28;20039;-66
2022/08/03 00:13:41;;;;;;;5.15;1.98;;;20.90;65.10;;;20.23;73.67;96111.53;4936502;28;20511;-66
2022/08/03 00:16:07;;;;;;;3.08;2.03;;;20.90;64.80;;;20.17;72.77;96112.53;4948474;28;20122;-68
2022/08/03 00:18:33;;;;;;;4.32;1.50;;;20.80;64.80;;;20.11;72.93;96113.50;4951122;28;20532;-67
2022/08/03 00:20:59;;;;;;;2.80;1.60;;;20.80;65.00;;;20.08;73.47;96114.00;4947171;28;20062;-67
2022/08/03 00:23:25;;;;;;;2.53;1.33;;;20.70;65.40;;;20.01;74.03;96108.84;4966550;28;20059;-67
2022/08/03 00:25:50;;;;;;;2.92;1.50;;;20.70;65.00;;;19.98;73.81;96109.34;4946072;28;20575;-66
2022/08/03 00:28:16;;;;;;;4.43;1.90;;;20.60;65.40;;;19.94;74.65;96116.25;4962788;28;20448;-67
2022/08/03 00:30:42;;;;;;;3.88;1.65;;;20.60;65.70;;;19.87;74.25;96112.91;4956273;28;20145;-67
2022/08/03 00:33:09;;;;;;;3.63;1.83;;;20.60;66.10;;;19.81;73.95;96109.38;4935664;28;20047;-68
2022/08/03 00:35:35;;;;;;;3.08;1.60;;;20.50;66.20;;;19.79;74.95;96118.69;4946572;28;20040;-67
2022/08/03 00:38:01;;;;;;;3.90;1.83;;;20.50;66.30;;;19.76;74.81;96112.00;4930568;28;20388;-67
2022/08/03 00:40:27;;;;;;;5.40;1.73;;;20.50;66.30;;;19.75;75.28;96106.91;4949361;28;20051;-68
2022/08/03 00:42:54;;;;;;;3.42;1.70;;;20.50;66.50;;;19.72;75.34;96108.22;4956032;28;20035;-66
2022/08/03 00:45:22;;;;;;;5.72;1.92;;;20.40;66.50;;;19.70;75.86;96109.50;4963603;28;20051;-67
2022/08/03 00:47:48;;;;;;;2.92;1.67;;;20.40;66.80;;;19.66;75.46;96105.69;4965799;28;20038;-67
2022/08/03 00:50:14;;;;;;;2.58;1.50;;;20.40;67.00;;;19.62;75.47;96109.91;4950110;28;20039;-67
2022/08/03 00:52:40;;;;;;;3.03;1.80;;;20.30;67.10;;;19.57;77.07;96107.97;4966847;28;20109;-67
2022/08/03 00:55:06;;;;;;;3.58;1.70;;;20.40;67.20;;;19.56;76.35;96107.19;4950190;28;20095;-66
2022/08/03 00:57:32;;;;;;;3.75;1.58;;;20.30;67.40;;;19.52;76.95;96108.69;4950314;28;20153;-67
2022/08/03 01:00:01;;;;;;;3.25;1.55;;;20.20;67.50;;;19.49;77.02;96103.84;4951083;28;20035;-67
2022/08/03 01:02:30;;;;;;;5.25;1.80;;;20.10;67.60;;;19.46;77.11;96115.00;4935171;28;20031;-67
2022/08/03 01:04:56;;;;;;;1.42;1.33;;;20.10;67.90;;;19.41;77.42;96114.09;4934398;28;20039;-67
2022/08/03 01:08:07;;;;;;;3.40;1.75;;;20.10;68.20;;;19.38;80.11;96109.25;4938854;28;20747;-67
2022/08/03 01:10:59;;;;;;;5.93;1.88;;;20.10;68.20;;;19.36;79.95;96112.19;4929372;29;20067;-66
2022/08/03 01:14:00;;;;;;;2.83;1.67;;;20.10;68.50;;;19.34;79.75;96108.94;4949933;28;20130;-67
2022/08/03 01:16:32;;;;;;;3.00;1.85;;;20.10;68.60;;;19.31;78.71;96103.31;4950839;28;20058;-67
2022/08/03 01:19:02;;;;;;;3.72;2.03;;;20.00;68.80;;;19.26;80.05;96106.69;4963152;28;20138;-67
2022/08/03 01:21:39;;;;;;;4.65;1.80;;;20.00;69.00;;;19.24;80.70;96098.94;4946304;28;20035;-67
2022/08/03 01:24:26;;;;;;;4.47;1.70;;;19.90;69.20;;;19.23;81.37;96096.50;4948766;28;20078;-67
2022/08/03 01:27:12;;;;;;;3.38;2.08;;;20.00;69.30;;;19.18;80.55;96094.56;4963436;28;20046;-66
2022/08/03 01:29:54;;;;;;;2.53;1.80;;;20.00;69.50;;;19.18;81.54;96099.09;4948450;28;20101;-66
2022/08/03 01:32:53;;;;;;;3.50;2.10;;;19.90;69.70;;;19.17;82.52;96092.13;4954650;28;20039;-67
2022/08/03 01:35:28;;;;;;;3.85;1.85;;;20.00;69.70;;;19.15;81.76;96097.72;4965126;28;20059;-67
2022/08/03 01:38:01;;;;;;;3.25;2.17;;;19.90;70.00;;;19.14;82.40;96097.97;4948489;28;20035;-67
2022/08/03 01:40:26;;;;;;;4.80;2.10;;;19.90;70.10;;;19.12;81.34;96087.53;4922968;29;20557;-67
2022/08/03 01:42:54;;;;;;;4.28;2.33;;;19.90;70.20;;;19.10;81.69;96086.16;4949039;28;20066;-66
2022/08/03 01:45:20;;;;;;;5.90;2.10;;;19.80;70.20;;;19.09;81.75;96089.88;4933220;28;20122;-67
2022/08/03 01:47:46;;;;;;;2.95;1.58;;;19.80;70.20;;;19.07;82.17;96094.66;4949765;28;20458;-67
2022/08/03 01:50:12;;;;;;;2.97;1.80;;;19.80;70.10;;;19.05;81.45;96084.25;4947092;28;20039;-66
2022/08/03 01:52:40;;;;;;;4.30;2.10;;;19.80;70.00;;;19.05;82.25;96088.75;4917890;29;20035;-67
2022/08/03 01:55:07;;;;;;;4.93;1.90;;;19.90;70.30;;;19.04;81.28;96087.97;4953258;28;20035;-66
2022/08/03 01:57:33;;;;;;;4.07;2.22;;;19.90;70.40;;;19.03;81.88;96093.53;4948664;28;20039;-67
2022/08/03 01:59:58;;;;;;;4.50;1.83;;;19.80;70.30;;;19.02;82.38;96084.72;4948818;28;20408;-66
2022/08/03 02:02:24;;;;;;;2.50;1.67;;;19.80;70.30;;;18.98;81.95;96079.03;4932285;28;20141;-67
2022/08/03 02:04:51;;;;;;;3.28;1.80;;;19.70;70.60;;;18.96;82.79;96086.47;4946492;28;20515;-67
2022/08/03 02:07:16;;;;;;;3.15;2.00;;;19.70;70.60;;;18.92;82.81;96080.03;4932567;28;20040;-67
2022/08/03 02:09:44;;;;;;;3.35;2.30;;;19.60;70.60;;;18.86;83.02;96089.00;4949216;28;20459;-67
2022/08/03 02:12:10;;;;;;;3.42;1.73;;;19.60;70.90;;;18.81;83.33;96088.09;4949416;28;20046;-67
2022/08/03 02:14:36;;;;;;;3.33;1.70;;;19.50;71.20;;;18.76;83.22;96091.47;4920835;28;20043;-67
2022/08/03 02:17:02;;;;;;;5.10;1.85;;;19.50;71.20;;;18.71;83.47;96087.91;4916251;29;20042;-66
2022/08/03 02:19:28;;;;;;;8.00;2.33;;;19.50;71.40;;;18.65;84.20;96093.16;4916633;28;20160;-66
2022/08/03 02:21:53;;;;;;;3.63;1.90;;;19.40;71.80;;;18.62;84.27;96093.66;4950302;28;20046;-67
2022/08/03 02:24:19;;;;;;;3.38;2.00;;;19.30;72.10;;;18.58;85.22;96089.00;4932347;28;20042;-68
2022/08/03 02:26:45;;;;;;;4.57;2.20;;;19.30;72.20;;;18.52;84.42;96095.28;4949405;28;20051;-67
2022/08/03 02:29:14;;;;;;;2.88;2.25;;;19.20;72.40;;;18.50;85.41;96086.72;4955624;28;20130;-67
2022/08/03 02:31:40;;;;;;;12.27;10.13;;;19.20;72.50;;;18.48;85.93;96094.13;4919923;29;20031;-67
2022/08/03 02:34:12;;;;;;;5.35;3.60;;;19.20;72.50;;;18.47;85.75;96092.53;4931476;29;20107;-66
2022/08/03 02:36:38;;;;;;;3.42;2.08;;;19.20;72.40;;;18.42;85.27;96100.41;4935320;28;20055;-67
2022/08/03 02:39:04;;;;;;;3.80;1.90;;;19.10;72.60;;;18.39;85.72;96088.41;4948841;28;20122;-66
2022/08/03 02:41:47;;;;;;;12.90;9.77;;;19.10;72.70;;;18.34;87.44;96097.09;4915826;28;20074;-66
2022/08/03 02:44:13;;;;;;;19.80;17.50;;;19.20;72.80;;;18.31;86.18;96091.41;4927038;28;20067;-66
2022/08/03 02:46:44;;;;;;;13.45;10.55;;;19.10;72.90;;;18.29;87.79;96089.00;4923261;29;20122;-67
2022/08/03 02:49:11;;;;;;;5.22;3.70;;;19.20;72.60;;;18.30;87.08;96087.13;4947318;28;20043;-67
2022/08/03 02:51:37;;;;;;;6.63;5.82;;;19.10;72.60;;;18.29;87.44;96089.00;4915634;29;20047;-68
2022/08/03 02:54:03;;;;;;;7.47;5.53;;;19.20;72.50;;;18.29;86.61;96091.66;4946689;28;20050;-67
2022/08/03 02:56:28;;;;;;;3.20;2.22;;;19.10;72.50;;;18.28;86.69;96086.56;4932093;28;20050;-69
2022/08/03 02:58:55;;;;;;;4.57;2.05;;;19.10;72.40;;;18.26;87.07;96080.69;4948400;28;20105;-67
2022/08/03 03:01:24;;;;;;;3.25;1.88;;;19.10;72.50;;;18.26;87.49;96086.00;4940891;28;20042;-67
2022/08/03 03:03:50;;;;;;;5.40;3.35;;;19.10;72.40;;;18.22;87.13;96088.34;4963158;28;20083;-67
2022/08/03 03:06:16;;;;;;;6.75;5.40;;;19.10;72.60;;;18.22;86.40;96085.66;4939573;28;20847;-67
2022/08/03 03:08:42;;;;;;;7.68;6.15;;;19.10;72.60;;;18.21;86.94;96086.72;4914049;29;20039;-68
2022/08/03 03:11:08;;;;;;;4.65;4.07;;;19.10;72.70;;;18.21;86.95;96086.72;4930880;29;20035;-67
2022/08/03 03:13:34;;;;;;;5.68;2.67;;;19.00;72.60;;;18.20;87.07;96079.78;4927927;29;20082;-67
2022/08/03 03:16:00;;;;;;;11.15;9.13;;;19.00;72.40;;;18.21;86.88;96077.91;4945056;28;20035;-67
2022/08/03 03:18:27;;;;;;;12.85;10.23;;;19.00;72.60;;;18.18;86.61;96073.06;4932782;28;20031;-67
2022/08/03 03:20:53;;;;;;;6.30;3.65;;;19.00;72.50;;;18.18;87.15;96075.75;4948472;28;20503;-67
2022/08/03 03:23:22;;;;;;;4.57;2.42;;;19.00;72.60;;;18.15;86.87;96079.69;4946622;28;20046;-67
2022/08/03 03:25:48;;;;;;;5.15;4.00;;;19.00;72.90;;;18.13;87.28;96092.44;4947350;28;20027;-67
2022/08/03 03:28:14;;;;;;;7.03;4.68;;;18.90;73.10;;;18.10;87.24;96087.53;4925441;28;20569;-67
2022/08/03 03:30:39;;;;;;;6.18;4.97;;;18.90;73.00;;;18.05;87.31;96084.78;4962112;28;20039;-67
2022/08/03 03:33:05;;;;;;;4.35;3.22;;;18.90;73.00;;;18.04;87.85;96083.97;4947296;28;20363;-67
2022/08/03 03:35:31;;;;;;;4.32;2.08;;;18.90;73.10;;;18.02;87.81;96079.94;4931996;28;20114;-67
2022/08/03 03:37:56;;;;;;;6.75;4.68;;;18.90;73.30;;;18.00;87.87;96085.50;4948183;28;20454;-67
2022/08/03 03:40:23;;;;;;;13.77;12.38;;;18.90;73.20;;;17.98;88.10;96094.78;4947623;28;20449;-67
2022/08/03 03:42:49;;;;;;;7.75;6.40;;;18.80;73.40;;;17.95;88.83;96092.59;4945215;28;20039;-67
2022/08/03 03:45:15;;;;;;;4.20;3.25;;;18.80;73.40;;;17.93;88.48;96084.03;4929593;28;20141;-67
2022/08/03 03:47:41;;;;;;;5.28;3.35;;;18.80;73.50;;;17.90;88.92;96084.50;4931477;28;20529;-67
2022/08/03 03:50:07;;;;;;;4.82;2.55;;;18.80;73.40;;;17.86;88.46;96099.31;4948126;28;20554;-67
2022/08/03 03:52:33;;;;;;;3.55;2.25;;;18.70;73.70;;;17.81;89.21;96094.69;4947395;28;20044;-70
2022/08/03 03:54:59;;;;;;;2.67;1.98;;;18.70;74.00;;;17.80;89.25;96100.25;4952183;28;20035;-70
2022/08/03 03:57:25;;;;;;;2.50;1.90;;;18.70;74.10;;;17.79;89.92;96090.66;4920663;28;20460;-70
2022/08/03 03:59:50;;;;;;;3.95;2.13;;;18.60;74.20;;;17.76;90.34;96097.25;4949652;28;20555;-70
2022/08/03 04:02:16;;;;;;;3.20;2.15;;;18.70;74.20;;;17.77;90.98;96092.72;4953048;28;20101;-71
2022/08/03 04:13:08;;;;;;;4.13;2.30;;;18.70;74.40;;;17.75;90.49;96092.97;4962122;28;20094;-70
2022/08/03 04:15:34;;;;;;;4.57;2.45;;;18.70;74.30;;;17.74;90.33;96100.13;4918509;28;20118;-70
2022/08/03 04:18:00;;;;;;;4.10;2.10;;;18.70;74.20;;;17.75;90.66;96100.94;4918124;29;20035;-70
2022/08/03 04:20:28;;;;;;;2.92;2.10;;;18.70;74.20;;;17.74;90.49;96104.66;4920358;29;20035;-70
2022/08/03 04:22:53;;;;;;;9.70;2.20;;;18.80;74.20;;;17.74;90.94;96096.69;4906429;29;20039;-70
2022/08/03 04:25:20;;;;;;;5.93;2.60;;;18.70;74.30;;;17.75;91.87;96103.59;4923865;28;20027;-70
2022/08/03 04:27:46;;;;;;;3.80;1.90;;;18.70;74.40;;;17.75;90.81;96100.94;4908913;29;20110;-70
2022/08/03 04:30:12;;;;;;;3.80;2.30;;;18.70;74.70;;;17.77;92.35;96108.69;4918455;29;20114;-71
2022/08/03 04:32:38;;;;;;;3.90;2.50;;;18.70;74.70;;;17.78;91.88;96105.81;4903016;29;20042;-70
2022/08/03 04:35:05;;;;;;;6.70;2.50;;;18.70;74.70;;;17.78;92.22;96100.47;4918527;29;20062;-70
2022/08/03 04:37:46;;;;;;;2.78;2.00;;;18.80;74.70;;;17.79;93.15;96107.41;4902186;28;20723;-70
2022/08/03 04:40:33;;;;;;;4.47;2.25;;;18.80;74.60;;;17.80;93.04;96108.22;4917297;28;20027;-70
2022/08/03 04:42:59;;;;;;;3.45;2.20;;;18.80;74.50;;;17.79;91.74;96104.75;4937591;29;20111;-70
2022/08/03 04:45:26;;;;;;;2.55;1.92;;;18.80;74.70;;;17.82;92.97;96108.78;4903217;28;20147;-70
2022/08/03 04:47:52;;;;;;;3.17;2.17;;;18.80;74.70;;;17.86;92.64;96115.25;4918194;29;20038;-70
2022/08/03 04:50:17;;;;;;;3.00;1.95;;;18.90;74.60;;;17.87;92.07;96114.22;4934562;29;20085;-70
2022/08/03 04:52:43;;;;;;;3.25;2.03;;;19.00;74.20;;;17.91;92.30;96120.72;4939144;28;20038;-70
2022/08/03 04:55:09;;;;;;;3.55;1.98;;;19.00;74.10;;;17.92;92.05;96117.00;4955988;28;20065;-70
2022/08/03 04:57:35;;;;;;;2.95;2.10;;;19.00;74.20;;;17.95;92.59;96128.00;4947953;28;20035;-70
2022/08/03 05:00:01;;;;;;;2.63;2.00;;;19.10;74.00;;;18.00;91.65;96119.31;4937013;29;20034;-70
2022/08/03 05:02:27;;;;;;;2.70;2.00;;;19.10;73.70;;;18.03;92.18;96124.16;4971177;28;20430;-70
2022/08/03 05:04:52;;;;;;;7.05;1.85;;;19.10;73.50;;;18.06;91.22;96126.34;4940438;28;20031;-70
2022/08/03 05:07:18;;;;;;;4.25;2.08;;;19.10;73.30;;;18.10;90.80;96124.81;4937539;28;20054;-72
2022/08/03 05:09:44;;;;;;;2.92;1.80;;;19.30;73.00;;;18.15;91.69;96124.13;4959279;28;20521;-70
2022/08/03 05:12:10;;;;;;;3.60;1.90;;;19.30;72.80;;;18.22;91.85;96133.59;4920994;29;20526;-70
2022/08/03 05:14:37;;;;;;;10.90;5.97;;;19.40;73.00;;;18.26;90.72;96132.06;4952731;28;20031;-70
2022/08/03 05:17:04;;;;;;;10.77;8.13;;;19.50;73.00;;;18.33;91.90;96135.44;4905759;29;20410;-70
2022/08/03 05:19:30;;;;;;;11.18;8.10;;;19.50;72.90;;;18.40;91.00;96134.47;4935480;28;20156;-70
2022/08/03 05:21:55;;;;;;;4.97;3.45;;;19.60;72.80;;;18.43;91.27;96129.47;4937224;28;20035;-70
2022/08/03 05:24:21;;;;;;;3.50;2.42;;;19.60;72.40;;;18.50;91.29;96132.00;4916795;28;20482;-70
2022/08/03 05:26:47;;;;;;;2.75;2.00;;;19.70;72.20;;;18.56;90.64;96139.06;4952655;28;20043;-70
2022/08/03 05:29:13;;;;;;;3.72;1.70;;;19.70;72.00;;;18.62;90.58;96141.59;4967754;28;20027;-70
2022/08/03 05:31:39;;;;;;;3.10;1.90;;;19.90;72.20;;;18.70;90.55;96144.91;4951369;28;20039;-70
2022/08/03 05:34:05;;;;;;;3.38;2.00;;;20.00;72.00;;;18.77;91.17;96138.38;4953290;28;20410;-70
2022/08/03 05:36:30;;;;;;;3.97;1.98;;;20.10;72.00;;;18.87;89.79;96141.25;4936231;29;20032;-70
2022/08/03 05:38:56;;;;;;;4.78;1.88;;;20.20;71.80;;;18.95;90.04;96138.19;4936324;29;20059;-70
2022/08/03 05:41:22;;;;;;;3.40;1.90;;;20.30;70.70;;;19.05;88.67;96139.41;4935957;28;20031;-70
2022/08/03 05:43:48;;;;;;;4.85;2.03;;;20.40;70.40;;;19.13;89.15;96136.34;4952497;28;20036;-70
2022/08/03 05:46:14;;;;;;;2.35;1.80;;;20.50;70.20;;;19.23;87.67;96139.16;4935925;29;20444;-70
2022/08/03 05:48:41;;;;;;;3.33;2.20;;;20.60;69.60;;;19.33;88.09;96144.69;4934839;28;20063;-70
2022/08/03 05:51:09;;;;;;;3.45;1.77;;;20.80;69.00;;;19.43;87.40;96144.00;4944072;28;20039;-70
2022/08/03 05:53:35;;;;;;;5.18;2.28;;;20.90;69.00;;;19.55;87.07;96134.09;4929061;28;20039;-70
2022/08/03 05:56:01;;;;;;;2.45;1.67;;;21.10;68.40;;;19.66;86.37;96135.03;4956303;28;20090;-71
2022/08/03 05:58:27;;;;;;;3.45;1.90;;;21.20;67.00;;;19.76;85.52;96138.69;4901969;29;20398;-70
2022/08/03 06:00:53;;;;;;;3.80;2.20;;;21.40;66.60;;;19.89;85.06;96134.84;4901368;29;20110;-70
2022/08/03 06:03:19;;;;;;;2.65;1.70;;;21.50;66.50;;;20.01;84.37;96135.53;4916529;28;20035;-71
2022/08/03 06:05:44;;;;;;;3.45;1.90;;;21.80;65.40;;;20.16;83.89;96138.44;4901316;29;20455;-70
2022/08/03 06:08:10;;;;;;;7.40;1.60;;;22.00;65.00;;;20.33;83.65;96140.19;4927923;28;20034;-70
2022/08/03 06:10:36;;;;;;;6.70;1.95;;;22.20;64.40;;;20.49;82.39;96142.03;4959322;28;20161;-70
2022/08/03 06:13:02;;;;;;;3.90;2.05;;;22.40;62.90;;;20.65;80.82;96140.34;4935870;29;20541;-70
2022/08/03 06:15:28;;;;;;;4.65;1.92;;;22.60;62.00;;;20.78;80.42;96146.09;4935077;28;20039;-70
2022/08/03 06:17:55;;;;;;;2.97;1.73;;;22.70;61.70;;;20.93;79.34;96144.63;4919832;28;20027;-70
2022/08/03 06:20:21;;;;;;;20.73;3.50;;;22.80;61.00;;;21.10;78.72;96143.47;4967378;28;20376;-70
2022/08/03 06:22:47;;;;;;;12.80;3.00;;;23.10;60.40;;;21.27;78.09;96148.69;4941491;28;20114;-70
2022/08/03 06:25:13;;;;;;;6.68;2.45;;;23.10;60.40;;;21.43;77.71;96135.44;4966746;28;20031;-69
2022/08/03 06:27:39;;;;;;;7.38;2.40;;;23.30;60.40;;;21.58;77.38;96140.91;4919458;29;20054;-70
2022/08/03 06:30:07;;;;;;;4.63;2.30;;;23.40;60.20;;;21.75;76.60;96146.94;4935156;29;20027;-70
2022/08/03 06:32:33;;;;;;;3.28;2.35;;;23.60;59.40;;;21.93;75.76;96157.19;4903483;29;20451;-70
2022/08/03 06:34:59;;;;;;;4.85;2.65;;;23.70;58.20;;;22.07;74.67;96146.88;4960191;28;20031;-70
2022/08/03 06:37:25;;;;;;;7.63;3.28;;;23.80;58.20;;;22.23;72.88;96145.06;4942562;28;20054;-70
2022/08/03 06:39:52;;;;;;;7.95;2.67;;;24.00;56.60;;;22.34;72.38;96152.06;4950902;28;20063;-70
2022/08/03 06:42:18;;;;;;;6.07;2.80;;;24.10;56.80;;;22.42;72.32;96148.91;4950885;28;20506;-70
2022/08/03 06:44:44;;;;;;;8.15;2.83;;;24.10;57.50;;;22.53;72.25;96152.44;4950982;28;20046;-70
2022/08/03 06:47:10;;;;;;;6.00;2.42;;;24.30;56.70;;;22.64;71.75;96153.28;4938313;28;20391;-70
2022/08/03 06:49:36;;;;;;;14.98;2.60;;;24.40;56.40;;;22.73;71.07;96149.00;4939609;28;20507;-70
2022/08/03 06:52:02;;;;;;;13.07;2.90;;;24.60;56.60;;;22.85;70.77;96142.34;4934954;29;20122;-70
2022/08/03 06:54:27;;;;;;;8.00;2.60;;;24.70;55.80;;;22.96;70.44;96145.06;4950572;28;20039;-70
2022/08/03 06:56:53;;;;;;;8.85;2.60;;;24.80;55.00;;;23.09;69.33;96147.22;4921165;29;20055;-70
2022/08/03 06:59:19;;;;;;;5.78;1.80;;;24.90;54.60;;;23.22;68.80;96146.69;4899302;28;20040;-71
2022/08/03 07:01:45;;;;;;;6.28;2.25;;;25.10;53.60;;;23.37;67.83;96148.59;4930173;29;20062;-70
2022/08/03 07:04:10;;;;;;;66.47;16.50;;;25.30;53.40;;;23.50;67.34;96143.47;4950538;28;20031;-70
2022/08/03 07:06:39;;;;;;;10.55;3.63;;;25.60;52.90;;;23.65;66.11;96150.75;4934691;28;20035;-70
2022/08/03 07:09:05;;;;;;;4.10;2.10;;;25.60;52.50;;;23.78;66.76;96150.19;4934382;29;20169;-71
2022/08/03 07:11:31;;;;;;;7.13;2.65;;;25.80;52.70;;;23.92;67.33;96155.00;4934408;28;20058;-70
2022/08/03 07:13:56;;;;;;;6.03;2.22;;;26.00;53.10;;;24.06;66.17;96146.09;4919090;29;20131;-70
2022/08/03 07:16:22;;;;;;;10.40;2.75;;;26.10;51.90;;;24.21;66.56;96147.91;4953362;28;20596;-70
2022/08/03 07:18:48;;;;;;;5.13;2.30;;;26.30;52.80;;;24.36;65.43;96144.41;4934370;29;20023;-70
2022/08/03 07:21:15;;;;;;;8.30;2.38;;;26.50;50.90;;;24.50;64.64;96150.81;4934063;28;20692;-70
2022/08/03 07:23:41;;;;;;;5.57;2.22;;;26.60;50.70;;;24.65;63.63;96152.59;4919158;29;20027;-71
2022/08/03 07:26:06;;;;;;;7.38;2.20;;;26.70;49.30;;;24.76;62.93;96146.09;4966474;28;20062;-70
2022/08/03 07:28:32;;;;;;;10.30;2.10;;;26.80;49.50;;;24.87;62.86;96147.66;4950498;28;20115;-70
2022/08/03 07:30:58;;;;;;;5.40;2.10;;;27.00;49.40;;;25.00;63.52;96139.00;4949477;28;20030;-70
2022/08/03 07:33:24;;;;;;;5.97;2.10;;;27.30;50.50;;;25.18;62.92;96137.53;4920967;28;20070;-70
2022/08/03 07:35:50;;;;;;;6.20;2.10;;;27.50;48.70;;;25.36;62.81;96136.06;4918494;29;20086;-70
2022/08/03 07:38:15;;;;;;;5.20;2.33;;;27.80;48.90;;;25.58;62.98;96135.59;4918070;28;20571;-71
2022/08/03 07:40:41;;;;;;;3.90;1.60;;;28.10;48.40;;;25.75;60.81;96132.47;4934653;29;20035;-70
2022/08/03 07:43:07;;;;;;;6.25;1.45;;;28.10;46.20;;;25.93;60.25;96129.06;4918573;29;20083;-70
2022/08/03 07:45:33;;;;;;;7.97;2.05;;;28.50;46.10;;;26.12;59.97;96124.56;4956684;28;20039;-71
2022/08/03 07:47:58;;;;;;;4.93;1.92;;;28.70;46.20;;;26.32;60.74;96128.09;4930916;29;20054;-70
2022/08/03 07:50:24;;;;;;;11.63;2.00;;;29.00;46.60;;;26.53;59.99;96124.09;4930974;28;20040;-70
2022/08/03 07:52:51;;;;;;;5.90;1.60;;;29.10;46.20;;;26.72;59.36;96124.94;4939940;28;20035;-70
2022/08/03 07:55:22;;;;;;;21.00;3.72;;;29.50;45.30;;;26.97;57.23;96131.84;4919497;28;20028;-70
2022/08/03 07:58:02;;;;;;;10.98;2.33;;;29.70;44.60;;;27.22;55.78;96128.00;4953571;28;20507;-70
2022/08/03 08:00:28;;;;;;;6.10;1.80;;;30.00;43.60;;;27.39;56.91;96122.06;4954555;28;20480;-70
2022/08/03 08:02:54;;;;;;;24.30;4.60;;;30.10;42.00;;;27.60;56.53;96114.38;4955257;28;20031;-71
2022/08/03 08:05:19;;;;;;;16.77;4.68;;;30.40;42.60;;;27.79;55.53;96120.56;4937360;28;20059;-71
2022/08/03 08:07:45;;;;;;;7.57;2.67;;;30.60;41.70;;;28.01;54.88;96118.00;4918821;29;20054;-71
2022/08/03 08:10:11;;;;;;;25.63;4.13;;;30.90;41.00;;;28.27;54.34;96117.53;4950571;28;20035;-71
2022/08/03 08:12:37;;;;;;;28.52;4.60;;;31.10;40.60;;;28.49;53.13;96114.91;4972761;28;20541;-70
2022/08/03 08:15:04;;;;;;;13.13;3.30;;;31.40;39.60;;;28.70;51.56;96117.19;4960078;28;20454;-70
2022/08/03 08:17:29;;;;;;;10.05;2.28;;;31.50;38.80;;;28.88;51.35;96108.16;4936818;28;20068;-70
2022/08/03 08:19:55;;;;;;;8.48;1.40;;;31.70;38.30;;;29.06;50.32;96109.91;4921935;29;20036;-70
2022/08/03 08:22:21;;;;;;;12.30;2.67;;;31.90;38.20;;;29.28;50.37;96115.31;4937862;29;20036;-70
2022/08/03 08:24:47;;;;;;;5.55;1.38;;;32.30;37.90;;;29.50;49.41;96111.84;4921883;29;20149;-71
2022/08/03 08:27:14;;;;;;;13.32;1.58;;;32.50;37.30;;;29.70;49.45;96109.72;4937300;28;20039;-70
2022/08/03 08:29:40;;;;;;;4.32;1.00;;;32.80;38.10;;;29.92;48.51;96111.59;4953404;28;20090;-71
2022/08/03 08:32:05;;;;;;;13.27;2.70;;;33.10;35.90;;;30.10;47.38;96099.72;4953385;28;20036;-71
2022/08/03 08:34:31;;;;;;;6.07;1.60;;;33.10;35.40;;;30.27;47.21;96102.47;4954715;28;20050;-68
2022/08/03 08:36:57;;;;;;;5.75;1.10;;;33.50;36.10;;;30.48;46.54;96102.69;4931449;28;20130;-68
2022/08/03 08:39:23;;;;;;;2.72;0.93;;;33.80;35.20;;;30.64;46.20;96106.59;4938114;28;20038;-68
2022/08/03 08:41:52;;;;;;;13.82;2.20;;;33.90;35.30;;;30.85;43.96;96101.38;4936348;29;20032;-68
2022/08/03 08:44:18;;;;;;;17.02;2.67;;;34.10;33.60;;;31.02;44.91;96097.84;4957671;28;20051;-68
2022/08/03 08:46:43;;;;;;;7.95;1.60;;;34.30;33.50;;;31.15;44.15;96098.81;4921353;29;20486;-68
2022/08/03 08:49:09;;;;;;;10.00;2.20;;;34.30;33.60;;;31.35;44.18;96096.25;4931299;28;20102;-68
2022/08/03 08:51:37;;;;;;;6.13;1.95;;;34.70;34.10;;;31.54;43.54;96087.75;4928844;28;20127;-69
2022/08/03 08:54:03;;;;;;;4.10;1.20;;;34.80;33.30;;;31.75;42.90;96095.25;4921733;29;20471;-69
2022/08/03 08:56:28;;;;;;;38.13;5.07;;;35.10;33.10;;;31.98;43.13;96094.69;4921158;28;20046;-68
2022/08/03 08:58:58;;;;;;;22.10;4.47;;;35.40;32.90;;;32.19;41.66;96086.59;4921846;29;20119;-69
2022/08/03 09:01:23;;;;;;;7.43;1.40;;;35.60;32.60;;;32.41;41.67;96082.81;4950849;28;20403;-69
2022/08/03 09:03:50;;;;;;;4.95;1.25;;;35.60;30.20;;;32.52;41.44;96094.91;4921258;28;20028;-69
2022/08/03 09:06:15;;;;;;;6.70;1.25;;;35.80;31.40;;;32.66;39.84;96086.50;4920985;28;20031;-68
2022/08/03 09:08:41;;;;;;;13.13;1.63;;;35.50;31.00;;;32.83;40.56;96083.72;4954003;28;20505;-69
2022/08/03 09:11:07;;;;;;;23.00;5.32;;;36.00;31.20;;;32.87;39.20;96084.63;4920999;29;20403;-68
2022/08/03 09:13:33;;;;;;;14.75;2.90;;;35.70;30.30;;;33.07;39.41;96093.13;4924187;28;20040;-68
2022/08/03 09:16:20;;;;;;;3.90;1.45;;;36.20;31.20;;;33.31;36.41;96087.78;4906434;29;20627;-69
2022/08/03 09:18:49;;;;;;;4.65;1.40;;;36.40;29.70;;;33.49;38.03;96085.69;4917663;29;20042;-69
2022/08/03 09:21:25;;;;;;;4.77;1.73;;;36.60;29.90;;;33.74;36.13;96090.09;4934151;28;20047;-70
2022/08/03 09:23:53;;;;;;;6.25;1.50;;;36.80;29.40;;;33.98;37.32;96094.84;4902047;29;20869;-69
2022/08/03 09:26:27;;;;;;;10.60;1.55;;;37.20;29.10;;;34.19;35.40;96091.22;4906933;29;20594;-69
2022/08/03 09:29:08;;;;;;;4.13;1.33;;;37.30;28.60;;;34.28;33.82;96081.75;4961724;28;20535;-69
2022/08/03 09:31:43;;;;;;;5.13;1.10;;;37.30;27.70;;;34.46;34.50;96076.09;4921381;28;20506;-69
2022/08/03 09:34:13;;;;;;;3.65;1.08;;;37.60;27.80;;;34.61;34.14;96076.16;4952556;28;20123;-69
2022/08/03 09:36:47;;;;;;;4.75;1.48;;;37.60;28.10;;;34.88;33.32;96076.63;4936639;28;20095;-69
2022/08/03 09:39:17;;;;;;;4.53;1.45;;;38.00;27.70;;;35.14;33.59;96078.94;4935602;28;20106;-69
2022/08/03 09:42:08;;;;;;;5.40;1.67;;;38.30;27.00;;;35.41;32.70;96071.88;4922566;29;20027;-69
2022/08/03 09:44:41;;;;;;;5.35;1.30;;;38.60;26.70;;;35.68;33.84;96075.72;4938981;28;20538;-69
2022/08/03 09:47:07;;;;;;;3.88;1.02;;;39.00;26.30;;;35.85;33.41;96070.75;4936916;29;20035;-69
2022/08/03 09:49:32;;;;;;;3.03;0.90;;;39.20;25.30;;;36.05;32.61;96074.38;4935381;28;20478;-69
2022/08/03 09:52:12;;;;;;;2.53;1.10;;;39.50;24.50;;;36.29;30.70;96073.38;4920331;29;20077;-69
2022/08/03 09:54:40;;;;;;;1.42;0.73;;;39.80;24.60;;;36.45;31.04;96076.94;4931774;29;20024;-69
2022/08/03 09:57:06;;;;;;;1.13;0.80;;;40.00;24.20;;;36.68;30.46;96076.25;4944308;28;20225;-69
2022/08/03 09:59:32;;;;;;;0.55;0.52;;;40.50;23.00;;;36.93;30.37;96072.16;4947463;28;20077;-69
2022/08/03 10:02:01;;;;;;;3.15;0.90;;;40.60;23.30;;;37.17;30.04;96078.50;4937361;28;20033;-69
2022/08/03 10:04:26;;;;;;;2.15;0.90;;;41.00;23.10;;;37.26;30.78;96071.66;4959762;28;20511;-69
2022/08/03 10:07:07;;;;;;;2.20;0.60;;;41.30;23.00;;;37.47;29.98;96075.97;4919944;29;20065;-70
2022/08/03 10:09:32;;;;;;;2.80;0.75;;;41.70;23.50;;;37.67;29.77;96070.09;4951087;28;20043;-69
2022/08/03 10:12:10;;;;;;;1.13;0.77;;;42.00;21.70;;;37.93;28.12;96076.84;4940046;28;20459;-71
2022/08/03 10:14:38;;;;;;;1.20;0.70;;;42.40;21.70;;;38.19;29.59;96074.16;4959076;28;20114;-70
2022/08/03 10:17:04;;;;;;;1.20;0.80;;;42.80;21.70;;;38.51;28.86;96052.69;4936191;28;20117;-70
2022/08/03 10:19:29;;;;;;;3.03;1.00;;;43.10;21.30;;;38.79;28.58;96057.00;4951052;28;20043;-69
2022/08/03 10:22:00;;;;;;;2.25;0.70;;;43.50;20.90;;;39.06;27.60;96050.28;4919951;29;20027;-69
2022/08/03 10:24:28;;;;;;;1.48;0.90;;;43.80;20.20;;;39.27;28.09;96052.53;4951218;28;20050;-69
2022/08/03 10:27:07;;;;;;;2.85;0.82;;;44.30;21.10;;;39.61;26.04;96052.50;4951248;29;20037;-70
2022/08/03 10:29:37;;;;;;;2.15;0.80;;;44.40;19.90;;;39.90;25.95;96046.13;4934973;28;20047;-70